Loyal, Wisconsin
Current Conditions -  °F | °C
As of 7:19 AM on Saturday 22 Nov 2014 (Local Time) from KMFI Reporting Station
Haze Haze  
Wind Chill: 24°   Ceiling: 300
Heat Index: 32°   Visibility: 1mi
Dew Point: 31°   Wind: 10mph
Humidity: 96%   Direction: 220°SW
Pressure: 29.83"   Gusts: NA
Location:  44.74°N, 90.5°W
Report Text: KMFI 221319Z AUTO 22009KT 1SM BR OVC003 00/M01 A2983 RMK AO2 T00001006
Loading
Personal Weather Stations






























Interactive Weather Map New forecast layout! Learn more

10-Day Weather Forecast

Advertisements
Track Severe Weather on mobile